Thunder radar more information blitzortung!


Radar de pluja more information rain snow radar


Visita la nostra xarxa de llocs de meteo:

Template documentation
and downloads

And another site



No particular awareness of the weather is required.    There are no Weather-warnings

Pagina Historial Weather Underground text

Diari Resum Octubre 18, 2017 Unitats:  Imperial    Mètric   Tant
« Previous Dia
SegĂźent Dia »
Diari Setmana Mensual Anual Personalitzada
  Maxima: Minima: Media:
Temperatura: 73.6 °F 57 °F 64.4 °F
Punt de rosada: 61.2 °F 50.7 °F 57 °F
Humitat: 95 % 59 % 78 %
Wind Speed: 11.5 mph 0 mph 3.9 mph
RĂ fegues de vent: 11.5 mph - -
Vent:- - East
Pression baro: 30.1 in 29.8 in -
Precipitacions: 0.46 in    
Historical Graphs
 
 
Dades de taula per Octubre 18, 2017
Temps Temperatura Punt de rosada Pression baro Vent Wind Speed RĂ fegues de vent Humitat Rainfall Rate (Hourly)
00:05 61 °F 55.4 °F 30.1 in NE 1 mph 3 mph 82 % 0 in
00:15 61 °F 55.4 °F 30.1 in Calm   1 mph 82 % 0 in
00:25 61.2 °F 55.6 °F 30.1 in Calm     82 % 0 in
00:35 61.2 °F 55.6 °F 30 in Calm     82 % 0 in
00:45 61.2 °F 55.6 °F 30 in Calm     82 % 0 in
00:55 61 °F 55.4 °F 30 in WNW 1 mph 1 mph 82 % 0 in
01:10 61 °F 55.4 °F 30 in WNW 1 mph 1 mph 82 % 0 in
01:20 61 °F 55.4 °F 30 in Calm   1 mph 82 % 0 in
01:30 60.6 °F 55 °F 30 in Calm   2 mph 82 % 0 in
01:40 60.4 °F 54.9 °F 30 in Calm     82 % 0 in
01:50 60.6 °F 55 °F 30 in South 1 mph 1 mph 82 % 0 in
02:00 60.6 °F 55.4 °F 30 in Calm     83 % 0 in
02:10 60.8 °F 55.6 °F 30 in Calm     83 % 0 in
02:20 60.8 °F 55.6 °F 30 in South 1 mph 1 mph 83 % 0 in
02:30 60.8 °F 55.6 °F 30 in SSE 1 mph 1 mph 83 % 0 in
02:40 60.6 °F 55.4 °F 30 in East 1 mph 2 mph 83 % 0 in
02:50 60.6 °F 55.4 °F 30 in Calm   1 mph 83 % 0 in
03:00 60.4 °F 55.2 °F 30 in Calm     83 % 0 in
03:10 60.6 °F 55.8 °F 30 in West 1 mph 2 mph 84 % 0 in
03:20 60.4 °F 55.6 °F 30 in Calm     84 % 0 in
03:30 60.1 °F 55.2 °F 30 in ENE 2 mph 2 mph 84 % 0 in
03:40 59.7 °F 54.9 °F 30 in SSW 1 mph 2 mph 84 % 0 in
03:50 59.9 °F 55 °F 30 in Calm   1 mph 84 % 0 in
04:00 60.4 °F 55.6 °F 30 in Calm   2 mph 84 % 0 in
04:10 60.8 °F 56.3 °F 30 in ENE 1 mph 2 mph 85 % 0 in
04:20 61.5 °F 56.7 °F 30 in NE 2 mph 3 mph 84 % 0 in
04:30 62.2 °F 57.4 °F 30 in NE 1 mph 2 mph 84 % 0 in
04:40 63.1 °F 57.6 °F 30 in NE 1 mph 2 mph 82 % 0 in
04:50 64.2 °F 58.3 °F 30 in Calm   1 mph 81 % 0 in
05:00 64.9 °F 58.3 °F 30 in East 1 mph 2 mph 79 % 0 in
05:10 64.6 °F 57.6 °F 30 in NE 1 mph 2 mph 78 % 0 in
05:20 64.4 °F 57.4 °F 30 in NNE 3 mph 4 mph 78 % 0 in
05:30 64.6 °F 57.6 °F 30 in NE 2 mph 4 mph 78 % 0 in
10:33 64.9 °F 57.9 °F 30 in East 2.9 mph 2.9 mph 78 % 0 in
10:34 64.9 °F 57.9 °F 30 in East 2.9 mph 2.9 mph 78 % 0 in
10:36 65.1 °F 58.1 °F 30 in NE 2.6 mph 2.6 mph 78 % 0 in
10:41 65.3 °F 58.3 °F 30 in ENE 4.6 mph 4.6 mph 78 % 0 in
10:51 66.2 °F 58.5 °F 30 in NNE 2.3 mph 2.3 mph 76 % 0 in
10:56 67.1 °F 59.4 °F 30 in NW 2.3 mph   76 % 0 in
11:01 68 °F 59.4 °F 30 in ESE 2.2 mph 2.2 mph 74 % 0 in
11:06 68.7 °F 60.1 °F 30 in ENE 2.4 mph 2.4 mph 74 % 0 in
11:11 69.3 °F 60.3 °F 30 in NNE 3.5 mph 3.5 mph 73 % 0 in
11:16 69.4 °F 60.1 °F 30 in East 3.3 mph 3.3 mph 72 % 0 in
11:21 69.6 °F 60.3 °F 30 in NNE 3.5 mph 3.5 mph 72 % 0 in
11:26 69.8 °F 60.1 °F 30 in ESE 4.3 mph 4.3 mph 71 % 0 in
11:27 69.6 °F 59.7 °F 30 in ENE 4.6 mph 4.6 mph 71 % 0 in
11:32 69.8 °F 60.4 °F 30 in ENE 4.6 mph 4.6 mph 72 % 0 in
11:37 69.8 °F 60.1 °F 30 in ESE 2.3 mph 2.3 mph 71 % 0 in
11:42 69.8 °F 59.5 °F 30 in East 5.8 mph 5.8 mph 70 % 0 in
11:47 70 °F 60.1 °F 30 in ENE 4.9 mph 4.9 mph 71 % 0 in
11:52 70.2 °F 60.3 °F 30 in ENE 4.6 mph 4.6 mph 71 % 0 in
11:57 70.3 °F 60.4 °F 30 in East 4.6 mph 4.6 mph 71 % 0 in
12:02 70.5 °F 60.3 °F 30 in ENE 2.3 mph 2.3 mph 70 % 0 in
12:07 70.2 °F 59.9 °F 30 in ESE 6.9 mph 6.9 mph 70 % 0 in
12:12 71.1 °F 60.4 °F 30 in ESE 5.8 mph 5.8 mph 69 % 0 in
12:17 71.2 °F 60.4 °F 30 in ESE 6 mph 6 mph 69 % 0 in
12:22 71.4 °F 61.2 °F 30 in East 4.6 mph 4.6 mph 70 % 0 in
12:27 72.3 °F 60.6 °F 30 in ESE 5.8 mph 5.8 mph 67 % 0 in
12:32 72.5 °F 60.4 °F 30 in ESE 6.9 mph 6.9 mph 66 % 0 in
12:37 72.1 °F 59.7 °F 30 in ENE 9.2 mph 9.2 mph 65 % 0 in
12:42 72.1 °F 59.4 °F 30 in ESE 8.1 mph 8.1 mph 64 % 0 in
12:47 72.7 °F 59.7 °F 30 in ESE 9.2 mph 9.2 mph 64 % 0 in
12:52 73 °F 59.7 °F 30 in ENE 8.1 mph 8.1 mph 63 % 0 in
12:57 72.9 °F 59.2 °F 29.9 in East 11.5 mph 11.5 mph 62 % 0 in
13:02 72.9 °F 59.2 °F 29.9 in ESE 10.4 mph 10.4 mph 62 % 0 in
13:07 72.9 °F 58.6 °F 29.9 in ESE 7.4 mph 7.4 mph 61 % 0 in
13:12 73.6 °F 59.4 °F 29.9 in ESE 9.2 mph 9.2 mph 61 % 0 in
13:17 72.9 °F 58.3 °F 29.9 in ESE 8.1 mph 8.1 mph 60 % 0 in
13:22 72.5 °F 57.7 °F 29.9 in ESE 4.6 mph 4.6 mph 60 % 0 in
13:27 72.7 °F 57.9 °F 29.9 in East 10.4 mph 10.4 mph 60 % 0 in
13:32 72.7 °F 57.9 °F 29.9 in East 9.2 mph 9.2 mph 60 % 0 in
13:37 72.5 °F 57.7 °F 29.9 in SE 8.5 mph 8.5 mph 60 % 0 in
13:42 72.7 °F 58.5 °F 30 in ESE 5.4 mph 5.4 mph 61 % 0 in
13:47 72.5 °F 57.7 °F 30 in ENE 10.4 mph 10.4 mph 60 % 0 in
13:52 72.3 °F 57.2 °F 30 in SE 9.2 mph 9.2 mph 59 % 0 in
13:57 72.3 °F 57.2 °F 30 in ESE 5.8 mph 5.8 mph 59 % 0 in
14:02 72 °F 56.8 °F 30 in ESE 8.1 mph 8.1 mph 59 % 0 in
14:07 71.8 °F 56.7 °F 30 in ESE 5.8 mph 5.8 mph 59 % 0 in
14:12 71.8 °F 56.7 °F 29.9 in ESE 5.8 mph 5.8 mph 59 % 0 in
14:17 71.8 °F 57 °F 29.9 in ESE 6.9 mph 6.9 mph 60 % 0 in
14:22 71.2 °F 57 °F 29.9 in ESE 7.6 mph 7.6 mph 61 % 0 in
14:27 71.1 °F 57.4 °F 29.9 in ENE 5.8 mph 5.8 mph 62 % 0 in
14:32 71.1 °F 57.7 °F 29.9 in ENE 5.9 mph 5.9 mph 63 % 0 in
14:37 70.9 °F 58.1 °F 29.9 in ENE 10.4 mph 10.4 mph 64 % 0 in
14:42 70.5 °F 58.3 °F 29.9 in ESE 10.4 mph 10.4 mph 65 % 0 in
14:47 70.3 °F 58.5 °F 29.9 in ESE 8.1 mph 8.1 mph 66 % 0 in
14:52 70.7 °F 58.8 °F 29.9 in NE 5.8 mph 5.8 mph 66 % 0 in
14:57 70.7 °F 58.8 °F 29.9 in ESE 5.8 mph 5.8 mph 66 % 0 in
15:02 70.7 °F 58.8 °F 29.9 in East 5.8 mph 5.8 mph 66 % 0 in
15:07 70.5 °F 58.3 °F 29.9 in SSE 8.1 mph 8.1 mph 65 % 0 in
15:12 70.5 °F 58.3 °F 29.9 in ENE 8.1 mph 8.1 mph 65 % 0 in
15:17 70.5 °F 58.3 °F 29.9 in ESE 8.1 mph 8.1 mph 65 % 0 in
15:22 70.5 °F 58.6 °F 29.9 in East 8.1 mph 8.1 mph 66 % 0 in
15:27 70.5 °F 58.6 °F 29.9 in SE 6.9 mph 6.9 mph 66 % 0 in
15:32 70.3 °F 57.9 °F 29.9 in ESE 7.6 mph 7.6 mph 65 % 0 in
15:37 70.2 °F 58.6 °F 29.9 in SE 8.1 mph 8.1 mph 67 % 0 in
15:42 70.2 °F 58.6 °F 29.9 in ENE 4.6 mph 4.6 mph 67 % 0 in
15:47 70 °F 58.5 °F 29.9 in East 5.8 mph 5.8 mph 67 % 0 in
15:52 70 °F 58.5 °F 29.9 in East 6.9 mph 6.9 mph 67 % 0 in
15:57 69.8 °F 58.8 °F 29.9 in ESE 4.6 mph 4.6 mph 68 % 0 in
16:02 69.8 °F 59.2 °F 29.9 in ENE 6.9 mph 6.9 mph 69 % 0 in
16:07 69.4 °F 59.2 °F 29.9 in ESE 6.9 mph 6.9 mph 70 % 0 in
16:12 68.9 °F 58.6 °F 29.9 in East 9.2 mph 9.2 mph 70 % 0 in
16:17 68.9 °F 59.2 °F 29.9 in ESE 9.7 mph 9.7 mph 71 % 0 in
16:22 68.9 °F 59.5 °F 29.9 in ESE 5.8 mph 5.8 mph 72 % 0 in
16:27 68.9 °F 59.5 °F 29.9 in ESE 6.9 mph 6.9 mph 72 % 0 in
16:32 68.9 °F 59.9 °F 29.9 in SE 3.5 mph 3.5 mph 73 % 0 in
16:37 68.7 °F 59.4 °F 29.9 in ESE 9.2 mph 9.2 mph 72 % 0 in
16:42 68.5 °F 59.2 °F 29.9 in ESE 10.4 mph 10.4 mph 72 % 0 in
16:43 68.5 °F 59.2 °F 29.9 in SE 10.4 mph 10.4 mph 72 % 0 in
16:48 68.4 °F 59 °F 29.9 in ESE 5.8 mph 5.8 mph 72 % 0 in
16:53 68.2 °F 59.2 °F 29.9 in ENE 5.8 mph 5.8 mph 73 % 0 in
16:58 68 °F 59 °F 29.9 in ESE 5.6 mph 5.6 mph 73 % 0 in
17:03 68 °F 59.4 °F 29.9 in ENE 8.1 mph 8.1 mph 74 % 0 in
17:08 68.2 °F 59.5 °F 29.9 in ESE 3.8 mph 3.8 mph 74 % 0 in
17:13 68.2 °F 59.5 °F 29.9 in East 5.4 mph 5.4 mph 74 % 0 in
17:18 68 °F 59.7 °F 29.9 in ESE 5.8 mph 5.8 mph 75 % 0 in
17:23 67.5 °F 59.5 °F 29.9 in ENE 5.8 mph 5.8 mph 76 % 0 in
17:28 67.1 °F 59.4 °F 29.8 in East 4.6 mph 4.6 mph 76 % 0 in
17:33 66.7 °F 59.4 °F 29.8 in NW 5.4 mph 5.4 mph 77 % 0 in
17:38 66.6 °F 59.2 °F 29.8 in ENE 2.9 mph 2.9 mph 77 % 0 in
17:43 66.4 °F 58.8 °F 29.8 in NNE 5.8 mph 5.8 mph 77 % 0 in
17:48 66.4 °F 58.8 °F 29.8 in ENE 5.8 mph 5.8 mph 77 % 0 in
17:53 66.2 °F 58.8 °F 29.8 in NE 4.3 mph 4.3 mph 77 % 0 in
17:58 66.2 °F 58.8 °F 29.8 in NNE 5.4 mph 5.4 mph 77 % 0 in
18:03 66.2 °F 58.8 °F 29.8 in NNE 4.6 mph 4.6 mph 77 % 0 in
18:08 66.2 °F 58.8 °F 29.8 in ENE 4.6 mph 4.6 mph 77 % 0 in
18:13 66.4 °F 58.8 °F 29.8 in East 4.3 mph 4.3 mph 77 % 0 in
18:18 66.2 °F 58.8 °F 29.8 in NNE 6.2 mph 6.2 mph 77 % 0 in
18:23 66.2 °F 58.8 °F 29.8 in East 1.6 mph   77 % 0 in
18:28 66.4 °F 59.4 °F 29.8 in SE 4.6 mph 4.6 mph 78 % 0 in
18:33 66.4 °F 59.7 °F 29.8 in ENE 3.1 mph 3.1 mph 79 % 0 in
18:38 66.4 °F 59.7 °F 29.8 in SE 3.6 mph 3.6 mph 79 % 0 in
18:43 66.4 °F 60.1 °F 29.8 in SW 3.5 mph 3.8 mph 80 % 0 in
18:48 64 °F 56.7 °F 29.8 in SSW 10.4 mph 10.4 mph 77 % 0 in
18:53 61.7 °F 54.1 °F 29.8 in WSW 9.2 mph 9.2 mph 76 % 0 in
18:58 59.4 °F 52.2 °F 29.9 in SW 8.1 mph 8.1 mph 77 % 0.04 in
19:03 58.1 °F 51.3 °F 29.9 in SSW 5.9 mph 5.9 mph 78 % 0.13 in
19:08 57.6 °F 50.7 °F 29.9 in WSW 4.6 mph 4.6 mph 78 % 0.13 in
19:13 57.2 °F 50.7 °F 29.9 in SW 2.4 mph 2.4 mph 79 % 0.13 in
19:18 57.2 °F 51.1 °F 29.9 in West 2.3 mph   80 % 0.13 in
19:23 57.2 °F 51.4 °F 29.9 in NW 2.3 mph   81 % 0.13 in
19:28 57.2 °F 51.8 °F 29.9 in WSW 2.2 mph 2.2 mph 82 % 0.25 in
19:33 57.4 °F 52 °F 29.9 in WNW 1.2 mph   82 % 0.25 in
19:38 57.6 °F 52.3 °F 29.9 in ENE 2.6 mph 2.6 mph 83 % 0.29 in
19:43 57.2 °F 52.2 °F 29.9 in NNE 3.5 mph 3.5 mph 83 % 0.29 in
19:48 57.2 °F 52.3 °F 29.9 in NE 2.3 mph 2.3 mph 84 % 0.29 in
19:53 57.2 °F 52.3 °F 29.9 in Calm     84 % 0.29 in
19:58 57.2 °F 52.7 °F 29.9 in Calm     85 % 0.25 in
20:03 57.4 °F 52.9 °F 29.9 in NE 2.3 mph 2.3 mph 85 % 0.16 in
20:08 57.4 °F 52.9 °F 29.9 in NNE 2.3 mph 2.3 mph 85 % 0.16 in
20:13 57 °F 52.5 °F 29.9 in NNE 5.8 mph 5.8 mph 85 % 0.16 in
20:18 57 °F 52.9 °F 29.9 in NNE 3.5 mph 3.5 mph 86 % 0.16 in
20:23 57 °F 52.9 °F 29.9 in NNE 5.8 mph 5.8 mph 86 % 0.16 in
20:28 57 °F 52.9 °F 29.9 in NNE 5.8 mph 5.8 mph 86 % 0.04 in
20:33 57 °F 53.2 °F 29.9 in NNE 3.3 mph 3.3 mph 87 % 0.04 in
20:38 57.2 °F 53.4 °F 29.9 in ENE 4.6 mph 4.6 mph 87 % 0 in
20:43 57 °F 53.2 °F 29.8 in NNE 5.8 mph 5.8 mph 87 % 0 in
20:48 57.2 °F 53.8 °F 29.8 in NNE 2.6 mph 2.6 mph 88 % 0 in
20:53 57.4 °F 54 °F 29.8 in Calm     88 % 0 in
20:58 57.6 °F 54.3 °F 29.9 in ENE 2.3 mph 2.3 mph 89 % 0 in
21:03 57.6 °F 54.3 °F 29.9 in ENE 3.5 mph 3.5 mph 89 % 0 in
21:08 57.6 °F 54.3 °F 29.9 in ENE 2.3 mph 2.3 mph 89 % 0 in
21:13 57.6 °F 54.3 °F 29.9 in NE 2.3 mph 2.3 mph 89 % 0 in
21:18 57.7 °F 54.5 °F 29.9 in NNE 1.4 mph 1.4 mph 89 % 0.17 in
21:23 57.9 °F 55 °F 29.9 in ENE 1.2 mph   90 % 0.17 in
21:28 57.9 °F 55 °F 29.9 in NNE 1.2 mph   90 % 0.17 in
21:33 57.9 °F 55 °F 29.9 in Calm     90 % 0.17 in
21:38 58.1 °F 55.2 °F 29.9 in Calm     90 % 0.17 in
21:43 58.1 °F 55.2 °F 29.9 in NNE 1.6 mph   90 % 0.17 in
21:48 58.1 °F 55.2 °F 29.9 in NNE 2.3 mph 2.3 mph 90 % 0.17 in
21:53 58.1 °F 55.2 °F 29.9 in NNE 2.3 mph 2.3 mph 90 % 0.17 in
21:58 58.1 °F 55.2 °F 29.9 in NNE 3.5 mph 3.5 mph 90 % 0.17 in
22:03 58.1 °F 55.2 °F 29.9 in Calm     90 % 0.17 in
22:08 58.1 °F 55.6 °F 29.9 in Calm     91 % 0.17 in
22:13 58.1 °F 55.6 °F 29.9 in Calm     91 % 0.17 in
22:18 58.3 °F 55.8 °F 29.9 in ENE 2.3 mph   91 % 0 in
22:23 58.1 °F 55.6 °F 29.9 in Calm     91 % 0 in
22:28 58.3 °F 55.8 °F 29.9 in Calm     91 % 0 in
22:33 58.3 °F 55.8 °F 29.9 in Calm     91 % 0 in
22:38 58.1 °F 55.6 °F 29.9 in Calm     91 % 0 in
22:43 58.1 °F 55.6 °F 29.9 in SW 1.6 mph   91 % 0 in
22:48 58.3 °F 55.8 °F 29.9 in NNE 1.2 mph 1.2 mph 91 % 0 in
22:53 58.3 °F 55.9 °F 29.9 in ENE 2.3 mph 2.3 mph 92 % 0 in
22:58 58.1 °F 55.8 °F 29.8 in ESE 2.3 mph 2.3 mph 92 % 0 in
23:00 58.6 °F 56.8 °F 29.8 in NE 1 mph 2 mph 94 % 0 in
23:04 58.1 °F 55.8 °F 29.8 in East 1.4 mph   92 % 0 in
23:09 58.1 °F 55.8 °F 29.8 in East 1.2 mph 1.2 mph 92 % 0 in
23:10 58.6 °F 56.8 °F 29.8 in NE 2 mph 3 mph 94 % 0 in
23:14 58.3 °F 55.9 °F 29.8 in Calm     92 % 0 in
23:19 58.3 °F 55.9 °F 29.8 in NNE 2.3 mph 2.3 mph 92 % 0 in
23:20 58.6 °F 56.8 °F 29.8 in NE 1 mph 3 mph 94 % 0 in
23:24 58.3 °F 55.9 °F 29.8 in ESE 2.4 mph 2.4 mph 92 % 0 in
23:29 58.3 °F 55.9 °F 29.9 in ESE 3.6 mph 3.6 mph 92 % 0 in
23:30 58.6 °F 57.2 °F 29.8 in Calm   1 mph 95 % 0 in
23:34 58.3 °F 55.9 °F 29.9 in Calm     92 % 0 in
23:39 58.3 °F 55.9 °F 29.9 in Calm     92 % 0 in
23:40 58.8 °F 57.4 °F 29.8 in Calm     95 % 0.04 in
23:44 58.3 °F 55.9 °F 29.8 in Calm     92 % 0 in
23:49 58.3 °F 55.9 °F 29.8 in West 2.4 mph 2.4 mph 92 % 0 in
23:50 58.8 °F 57.4 °F 29.8 in NNE 2 mph 4 mph 95 % 0.04 in
23:54 58.3 °F 55.8 °F 29.8 in Calm     91 % 0 in
23:59 58.3 °F 55.9 °F 29.9 in Calm     92 % 0 in
Meteo Sesrovires
Elogis d' Weather Underground - 3.5 mb

Guio original per  Jim McMurry - jmcmurry@mwt.net Adaptat per a la plantilla per  Wim van der Kuil - Leuven-Template.eu

Trobareu la nostra informacio del temps tambe a:

Weather Underground

AWEKAS